createdAt,value
2023-01-30T00:04:29.324Z,96211.03
2023-01-30T00:09:30.813Z,96202.66
2023-01-30T00:14:32.304Z,96190.03
2023-01-30T00:19:33.812Z,96183.22
2023-01-30T00:24:35.399Z,96186.22
2023-01-30T00:29:36.943Z,96182.75
2023-01-30T00:34:38.450Z,96168.53
2023-01-30T00:39:39.948Z,96153.53
2023-01-30T00:45:00.198Z,96156.03
2023-01-30T00:50:01.803Z,96144.50
2023-01-30T00:55:03.864Z,96132.66
2023-01-30T01:00:06.099Z,96125.22
2023-01-30T01:05:07.984Z,96113.84
2023-01-30T01:10:16.219Z,96102.31
2023-01-30T01:15:18.596Z,96102.31
2023-01-30T01:20:23.119Z,96109.75
2023-01-30T01:25:25.549Z,96101.84
2023-01-30T01:30:27.102Z,96124.44
2023-01-30T01:35:28.612Z,96124.44
2023-01-30T01:40:48.695Z,96155.38
2023-01-30T01:45:55.595Z,96162.81
2023-01-30T01:51:15.800Z,96171.81
2023-01-30T01:56:19.897Z,96158.38
2023-01-30T02:06:25.250Z,96136.75
2023-01-30T02:11:49.676Z,96142.75
2023-01-30T02:16:51.227Z,96128.19
2023-01-30T02:22:20.628Z,96129.94
2023-01-30T02:28:00.775Z,96120.16
2023-01-30T02:33:11.049Z,96104.66
2023-01-30T02:38:45.871Z,96092.50
2023-01-30T02:44:26.580Z,96084.47
2023-01-30T02:49:34.636Z,96093.78
2023-01-30T02:54:36.214Z,96078.47
2023-01-30T02:59:43.251Z,96083.22
2023-01-30T03:05:18.743Z,96059.84
2023-01-30T03:15:50.039Z,96034.88
2023-01-30T03:20:51.728Z,95963.47
2023-01-30T03:25:53.791Z,95966.16
2023-01-30T03:30:55.567Z,96024.75
2023-01-30T03:35:57.230Z,96023.47
2023-01-30T03:40:58.813Z,96036.28
2023-01-30T03:46:00.485Z,96044.19
2023-01-30T03:51:03.534Z,96014.63
2023-01-30T03:56:05.498Z,95987.66
2023-01-30T04:01:09.638Z,95974.22
2023-01-30T04:06:11.541Z,95943.56
2023-01-30T04:11:13.202Z,95928.88
2023-01-30T04:16:23.883Z,95923.38
2023-01-30T04:21:44.107Z,95934.72
2023-01-30T04:26:46.543Z,95935.66
2023-01-30T04:31:48.685Z,95936.13
2023-01-30T04:37:02.504Z,95918.59
2023-01-30T04:42:05.468Z,95923.19
2023-01-30T04:47:14.902Z,95921.16
2023-01-30T04:52:16.629Z,95924.00
2023-01-30T04:57:18.166Z,95925.88
2023-01-30T05:02:21.273Z,95917.50
2023-01-30T05:07:24.470Z,95922.41
2023-01-30T05:12:26.020Z,95927.44
2023-01-30T05:17:27.765Z,95923.03
2023-01-30T05:22:29.288Z,95928.38
2023-01-30T05:27:30.923Z,95933.13
2023-01-30T05:32:32.458Z,95939.13
2023-01-30T05:37:34.042Z,95944.16
2023-01-30T05:42:35.599Z,95936.44
2023-01-30T05:47:37.192Z,95920.97
2023-01-30T05:52:38.726Z,95909.56
2023-01-30T05:57:40.263Z,95906.09
2023-01-30T06:02:41.880Z,95900.56
2023-01-30T06:07:43.415Z,95891.06
2023-01-30T06:12:44.932Z,95890.59
2023-01-30T06:17:46.489Z,95870.72
2023-01-30T06:22:49.137Z,95879.25
2023-01-30T06:27:50.793Z,95877.50
2023-01-30T06:32:52.470Z,95872.63
2023-01-30T06:37:54.019Z,95868.66
2023-01-30T06:42:55.606Z,95873.09
2023-01-30T06:47:57.246Z,95862.19
2023-01-30T06:53:01.172Z,95855.84
2023-01-30T06:58:06.988Z,95867.50
2023-01-30T07:03:16.583Z,95853.16
2023-01-30T07:08:18.211Z,95867.19
2023-01-30T07:13:19.753Z,95876.53
2023-01-30T07:18:21.369Z,95874.44
2023-01-30T07:23:22.889Z,95857.53
2023-01-30T07:28:24.435Z,95851.81
2023-01-30T07:33:26.022Z,95850.09
2023-01-30T07:38:27.680Z,95849.16
2023-01-30T07:43:29.251Z,95837.78
2023-01-30T07:48:30.776Z,95850.09
2023-01-30T07:53:32.296Z,95832.41
2023-01-30T07:58:33.956Z,95845.00
2023-01-30T08:03:35.621Z,95834.84
2023-01-30T08:08:37.277Z,95831.81
2023-01-30T08:13:38.769Z,95858.31
2023-01-30T08:18:40.316Z,95846.78
2023-01-30T08:23:41.818Z,95833.06
2023-01-30T08:28:43.438Z,95825.44
2023-01-30T08:33:44.971Z,95822.88
2023-01-30T08:38:46.676Z,95817.78
2023-01-30T08:43:48.203Z,95798.75
2023-01-30T08:48:50.555Z,95812.31
2023-01-30T08:53:52.253Z,95797.13
2023-01-30T08:58:54.001Z,95819.69
2023-01-30T09:03:55.641Z,95806.53
2023-01-30T09:08:59.649Z,95787.03
2023-01-30T09:14:01.494Z,95774.63
2023-01-30T09:19:03.331Z,95766.34
2023-01-30T09:24:05.948Z,95790.84
2023-01-30T09:29:07.519Z,95759.13
2023-01-30T09:34:09.178Z,95774.06
2023-01-30T09:39:10.677Z,95801.97
2023-01-30T09:45:07.803Z,95788.97
2023-01-30T09:50:42.164Z,95762.31
2023-01-30T09:55:46.157Z,95747.41
2023-01-30T10:00:51.753Z,95758.63
2023-01-30T10:05:58.842Z,95744.72
2023-01-30T10:11:41.086Z,95729.34
2023-01-30T10:16:53.926Z,95727.09
2023-01-30T10:22:28.984Z,95724.31
2023-01-30T10:27:32.844Z,95711.63
2023-01-30T10:32:55.856Z,95697.84
2023-01-30T10:38:27.068Z,95704.16
2023-01-30T10:43:41.447Z,95686.19
2023-01-30T10:48:59.534Z,95685.53
2023-01-30T10:54:03.503Z,95681.03
2023-01-30T10:59:24.738Z,95661.19
2023-01-30T11:04:39.505Z,95662.09
2023-01-30T11:09:43.186Z,95671.41
2023-01-30T11:14:58.747Z,95677.81
2023-01-30T11:20:11.867Z,95683.97
2023-01-30T11:25:21.746Z,95654.56
2023-01-30T11:30:29.037Z,95664.19
2023-01-30T11:35:32.843Z,95653.41
2023-01-30T11:40:39.867Z,95648.94
2023-01-30T11:45:45.665Z,95655.66
2023-01-30T11:50:50.251Z,95652.66
2023-01-30T11:56:19.741Z,95648.25
2023-01-30T12:01:28.197Z,95646.34
2023-01-30T12:06:41.727Z,95648.59
2023-01-30T12:11:46.349Z,95633.31
2023-01-30T12:17:00.387Z,95630.41
2023-01-30T12:22:22.843Z,95639.72
2023-01-30T12:28:12.563Z,95620.38
2023-01-30T12:33:22.299Z,95619.06
2023-01-30T12:38:47.316Z,95616.91
2023-01-30T12:44:22.598Z,95631.94
2023-01-30T12:50:01.138Z,95626.66
2023-01-30T12:55:22.081Z,95627.09
2023-01-30T13:01:02.260Z,95635.84
2023-01-30T13:06:23.162Z,95651.72
2023-01-30T13:11:41.924Z,95665.97
2023-01-30T13:17:03.413Z,95669.13
2023-01-30T13:22:26.039Z,95665.63
2023-01-30T13:27:35.310Z,95674.84
2023-01-30T13:33:03.078Z,95673.19
2023-01-30T13:38:08.307Z,95656.34
2023-01-30T13:43:23.117Z,95659.78
2023-01-30T13:48:42.817Z,95638.78
2023-01-30T13:54:10.710Z,95648.31
2023-01-30T13:59:55.902Z,95657.25
2023-01-30T14:05:05.817Z,95667.47
2023-01-30T14:10:10.458Z,95672.09
2023-01-30T14:15:15.489Z,95697.81
2023-01-30T14:20:36.305Z,95667.00
2023-01-30T14:25:47.604Z,95662.59
2023-01-30T14:30:52.408Z,95658.34
2023-01-30T14:36:04.679Z,95684.41
2023-01-30T14:41:38.934Z,95655.97
2023-01-30T14:46:54.470Z,95676.53
2023-01-30T14:52:00.283Z,95682.38
2023-01-30T14:57:27.673Z,95722.47
2023-01-30T15:02:49.011Z,95702.81
2023-01-30T15:08:07.211Z,95734.09
2023-01-30T15:13:21.018Z,95732.63
2023-01-30T15:18:28.499Z,95758.00
2023-01-30T15:24:05.056Z,95759.38
2023-01-30T15:29:48.608Z,95762.06
2023-01-30T15:34:57.090Z,95741.00
2023-01-30T15:40:21.701Z,95765.31
2023-01-30T15:45:44.535Z,95763.72
2023-01-30T15:50:54.823Z,95784.88
2023-01-30T15:56:00.718Z,95789.44
2023-01-30T16:01:03.907Z,95795.66
2023-01-30T16:06:06.062Z,95818.13
2023-01-30T16:11:12.531Z,95816.09
2023-01-30T16:16:19.392Z,95814.19
2023-01-30T16:21:34.312Z,95842.66
2023-01-30T16:26:44.342Z,95837.78
2023-01-30T16:31:52.543Z,95823.97
2023-01-30T16:36:57.554Z,95831.16
2023-01-30T16:42:13.802Z,95831.41
2023-01-30T16:47:32.654Z,95867.28
2023-01-30T16:52:44.396Z,95865.16
2023-01-30T16:57:56.058Z,95860.06
2023-01-30T17:03:08.757Z,95867.84
2023-01-30T17:09:10.223Z,95893.16
2023-01-30T17:14:17.513Z,95881.44
2023-01-30T17:19:19.049Z,95884.81
2023-01-30T17:24:24.196Z,95876.41
2023-01-30T17:29:42.868Z,95882.91
2023-01-30T17:34:47.723Z,95888.75
2023-01-30T17:39:51.229Z,95908.44
2023-01-30T17:44:55.398Z,95906.97
2023-01-30T17:49:56.950Z,95916.06
2023-01-30T17:55:07.791Z,95919.69
2023-01-30T18:00:18.775Z,95928.25
2023-01-30T18:05:29.477Z,95952.41
2023-01-30T18:10:35.353Z,95964.44
2023-01-30T18:15:40.238Z,95957.38
2023-01-30T18:20:42.678Z,95944.44
2023-01-30T18:25:46.587Z,95946.78
2023-01-30T18:30:54.966Z,95966.25
2023-01-30T18:36:04.297Z,95999.31
2023-01-30T18:41:10.258Z,95976.69
2023-01-30T18:46:27.073Z,95974.91
2023-01-30T18:51:36.134Z,95993.13
2023-01-30T18:56:38.636Z,95986.63
2023-01-30T19:01:42.716Z,96005.31
2023-01-30T19:06:48.392Z,96007.41
2023-01-30T19:12:10.093Z,96006.97
2023-01-30T19:17:16.311Z,96005.31
2023-01-30T19:22:19.133Z,96033.53
2023-01-30T19:27:21.121Z,96022.94
2023-01-30T19:32:26.382Z,96015.53
2023-01-30T19:37:30.339Z,96031.41
2023-01-30T19:42:31.915Z,96037.25
2023-01-30T19:47:34.389Z,96049.53
2023-01-30T19:52:40.770Z,96051.19
2023-01-30T19:57:46.819Z,96059.66
2023-01-30T20:02:52.528Z,96058.88
2023-01-30T20:07:58.383Z,96054.34
2023-01-30T20:13:07.153Z,96072.16
2023-01-30T20:18:08.703Z,96059.31
2023-01-30T20:23:10.592Z,96110.06
2023-01-30T20:28:19.101Z,96093.31
2023-01-30T20:33:21.149Z,96091.59
2023-01-30T20:38:25.021Z,96098.13
2023-01-30T20:43:33.889Z,96104.34
2023-01-30T20:48:37.364Z,96100.16
2023-01-30T20:53:47.449Z,96097.00
2023-01-30T20:58:50.717Z,96093.31
2023-01-30T21:03:57.469Z,96102.28
2023-01-30T21:09:03.250Z,96104.97
2023-01-30T21:14:15.922Z,96114.22
2023-01-30T21:19:23.105Z,96134.81
2023-01-30T21:24:28.184Z,96126.47
2023-01-30T21:29:34.965Z,96118.50
2023-01-30T21:34:40.605Z,96126.13
2023-01-30T21:40:25.572Z,96135.69
2023-01-30T21:45:31.811Z,96133.66
2023-01-30T21:50:35.681Z,96132.53
2023-01-30T21:55:37.850Z,96139.19
2023-01-30T22:00:44.794Z,96149.06
2023-01-30T22:05:48.985Z,96134.25
2023-01-30T22:10:50.680Z,96139.38
2023-01-30T22:16:14.764Z,96158.31
2023-01-30T22:21:26.743Z,96144.34
2023-01-30T22:26:31.238Z,96151.00
2023-01-30T22:31:35.558Z,96168.13
2023-01-30T22:36:39.808Z,96170.69
2023-01-30T22:41:52.066Z,96168.66
2023-01-30T22:46:55.261Z,96174.53
2023-01-30T22:52:01.601Z,96160.66
2023-01-30T22:57:06.091Z,96175.72
2023-01-30T23:02:10.225Z,96182.00
2023-01-30T23:07:17.691Z,96169.19
2023-01-30T23:12:40.366Z,96161.19
2023-01-30T23:18:05.617Z,96175.84
2023-01-30T23:23:09.662Z,96158.97
2023-01-30T23:28:24.563Z,96162.69
2023-01-30T23:33:28.448Z,96160.47
2023-01-30T23:38:35.408Z,96157.53
2023-01-30T23:43:40.406Z,96168.97
2023-01-30T23:48:44.478Z,96180.56
2023-01-30T23:53:48.426Z,96168.88
2023-01-30T23:58:50.313Z,96179.34
